Time;durP1;ratioP1;P1;durP2;ratioP2;P2;SDS_P1;SDS_P2;PMS_P1;PMS_P2;Temp;Humidity;BMP_temperature;BMP_pressure;BME280_temperature;BME280_humidity;BME280_pressure;Samples;Min_cycle;Max_cycle;Signal;HPM_P1;HPM_P2
2022/03/07 00:02:15;;;;;;;8.70;2.63;;;;;;;12.44;54.82;102368.41;5011153;28;20057;-74
2022/03/07 00:04:41;;;;;;;9.75;2.67;;;;;;;12.39;54.75;102366.25;5029038;28;20043;-73
2022/03/07 00:07:07;;;;;;;11.65;2.25;;;;;;;12.28;55.61;102371.22;5014229;28;20030;-73
2022/03/07 00:09:34;;;;;;;11.57;2.63;;;;;;;12.21;55.77;102372.94;5011709;28;20026;-74
2022/03/07 00:12:00;;;;;;;11.75;2.33;;;;;;;12.11;56.58;102365.16;5014357;28;20164;-73
2022/03/07 00:14:26;;;;;;;18.92;3.10;;;;;;;11.97;57.20;102368.59;5014531;28;20092;-74
2022/03/07 00:16:52;;;;;;;13.00;2.75;;;;;;;11.88;57.74;102371.34;4998274;28;20022;-74
2022/03/07 00:19:19;;;;;;;9.20;2.47;;;;;;;11.85;57.67;102370.84;5015391;28;20029;-74
2022/03/07 00:21:45;;;;;;;16.58;3.42;;;;;;;11.73;58.90;102372.22;5012937;28;20021;-73
2022/03/07 00:24:11;;;;;;;11.20;2.47;;;;;;;11.53;60.62;102367.28;5030930;28;20037;-73
2022/03/07 00:26:37;;;;;;;13.80;3.03;;;;;;;11.49;59.60;102373.16;5029937;28;20025;-73
2022/03/07 00:29:03;;;;;;;12.73;2.80;;;;;;;11.39;60.69;102373.41;5014837;28;20033;-73
2022/03/07 00:31:30;;;;;;;10.30;2.50;;;;;;;11.31;60.52;102376.09;5028250;28;20088;-72
2022/03/07 00:33:56;;;;;;;10.18;2.45;;;;;;;11.29;60.86;102368.22;5011151;28;20037;-73
2022/03/07 00:36:22;;;;;;;34.03;3.88;;;;;;;11.17;61.57;102369.63;5009390;28;20072;-72
2022/03/07 00:38:48;;;;;;;15.93;2.85;;;;;;;11.07;61.87;102367.13;5014402;28;20029;-72
2022/03/07 00:41:15;;;;;;;8.23;2.65;;;;;;;11.08;61.22;102376.84;5028186;28;20034;-73
2022/03/07 00:43:42;;;;;;;8.38;2.67;;;;;;;11.08;62.01;102370.63;5010092;28;20037;-74
2022/03/07 00:46:08;;;;;;;11.20;2.50;;;;;;;11.00;61.60;102368.00;5014899;28;20021;-74
2022/03/07 00:48:34;;;;;;;9.93;2.95;;;;;;;10.91;62.26;102361.81;5014500;28;20030;-74
2022/03/07 00:51:00;;;;;;;12.90;3.05;;;;;;;10.83;62.48;102375.22;4997599;28;20352;-73
2022/03/07 00:53:28;;;;;;;11.82;2.80;;;;;;;10.74;62.28;102368.22;5013536;28;20165;-73
2022/03/07 00:55:55;;;;;;;6.55;2.17;;;;;;;10.62;62.81;102366.88;5012485;28;20028;-73
2022/03/07 00:58:22;;;;;;;13.50;3.00;;;;;;;10.61;62.63;102359.88;5012047;28;20030;-73
2022/03/07 01:00:49;;;;;;;22.02;3.40;;;;;;;10.47;63.12;102364.88;5010667;28;20131;-74
2022/03/07 01:03:18;;;;;;;13.45;2.97;;;;;;;10.41;63.07;102360.19;5014709;28;20026;-73
2022/03/07 01:05:45;;;;;;;11.75;2.38;;;;;;;10.31;63.19;102365.72;4994249;28;20026;-73
2022/03/07 01:08:11;;;;;;;13.93;2.83;;;;;;;10.28;63.38;102367.91;5026304;28;20029;-73
2022/03/07 01:10:38;;;;;;;13.55;3.00;;;;;;;10.14;64.38;102361.31;5012268;28;20057;-73
2022/03/07 01:13:05;;;;;;;11.65;2.65;;;;;;;9.93;65.51;102368.97;5012453;28;20034;-74
2022/03/07 01:15:31;;;;;;;11.07;2.75;;;;;;;9.89;64.21;102368.50;5009686;28;20064;-73
2022/03/07 01:17:59;;;;;;;9.43;2.38;;;;;;;9.88;64.61;102365.97;5013047;28;20030;-74
2022/03/07 01:20:26;;;;;;;10.75;3.03;;;;;;;9.87;65.08;102375.00;5012598;28;20038;-74
2022/03/07 01:22:53;;;;;;;19.05;3.78;;;;;;;9.83;64.20;102369.16;5012543;28;20522;-74
2022/03/07 01:25:19;;;;;;;11.10;3.10;;;;;;;9.76;65.21;102379.63;5028419;28;20474;-73
2022/03/07 01:27:46;;;;;;;7.32;2.25;;;;;;;9.56;66.13;102386.28;5011394;28;20179;-73
2022/03/07 01:30:12;;;;;;;9.82;2.45;;;;;;;9.47;66.22;102376.53;5011868;28;20104;-73
2022/03/07 01:32:38;;;;;;;15.68;2.83;;;;;;;9.41;66.74;102378.03;5013733;28;20026;-73
2022/03/07 01:35:06;;;;;;;12.02;2.72;;;;;;;9.38;66.33;102381.00;5028915;28;20034;-73
2022/03/07 01:37:32;;;;;;;8.75;2.88;;;;;;;9.30;67.33;102378.31;5013698;28;20037;-73
2022/03/07 01:39:58;;;;;;;12.15;2.28;;;;;;;9.26;67.28;102372.44;5009751;28;20081;-73
2022/03/07 01:42:25;;;;;;;9.75;2.55;;;;;;;9.11;67.86;102387.41;5012139;28;20034;-73
2022/03/07 01:44:51;;;;;;;11.50;2.70;;;;;;;8.98;68.26;102389.66;4995544;28;20022;-73
2022/03/07 01:47:17;;;;;;;12.60;2.72;;;;;;;8.83;68.39;102392.06;5012524;28;20037;-73
2022/03/07 01:49:44;;;;;;;9.25;2.50;;;;;;;8.78;68.64;102397.03;5009974;28;20436;-73
2022/03/07 01:52:12;;;;;;;10.25;2.58;;;;;;;8.69;69.37;102396.13;4995248;28;20041;-73
2022/03/07 01:54:38;;;;;;;10.90;2.85;;;;;;;8.62;69.55;102396.91;4995331;28;20030;-73
2022/03/07 01:57:04;;;;;;;11.18;2.97;;;;;;;8.48;70.59;102392.97;4996249;28;20068;-73
2022/03/07 01:59:33;;;;;;;11.35;2.95;;;;;;;8.51;70.75;102403.34;5013194;28;20382;-73
2022/03/07 02:02:00;;;;;;;11.73;2.90;;;;;;;8.40;71.19;102392.91;4992776;28;20060;-73
2022/03/07 02:04:26;;;;;;;12.20;2.97;;;;;;;8.27;71.69;102390.56;5027532;28;20129;-73
2022/03/07 02:06:53;;;;;;;20.30;3.65;;;;;;;8.17;72.42;102396.00;5013519;28;20022;-73
2022/03/07 02:09:19;;;;;;;13.40;3.55;;;;;;;8.13;72.53;102393.78;5010595;28;20467;-72
2022/03/07 02:11:45;;;;;;;14.38;3.00;;;;;;;8.12;72.91;102392.13;5027434;28;20034;-73
2022/03/07 02:14:22;;;;;;;12.63;3.40;;;;;;;8.04;73.45;102395.50;5013234;28;20121;-73
2022/03/07 02:16:49;;;;;;;10.50;3.63;;;;;;;8.00;74.05;102404.84;5011546;28;20026;-73
2022/03/07 02:19:16;;;;;;;30.55;3.53;;;;;;;7.99;73.58;102397.78;4995487;28;20030;-72
2022/03/07 02:21:47;;;;;;;15.80;3.30;;;;;;;7.98;73.85;102400.63;5010256;28;20424;-73
2022/03/07 02:24:15;;;;;;;14.02;3.30;;;;;;;7.96;74.15;102398.13;5010895;28;20030;-73
2022/03/07 02:26:42;;;;;;;11.82;2.85;;;;;;;7.87;73.89;102405.16;5011315;28;20021;-73
2022/03/07 02:29:11;;;;;;;14.48;3.05;;;;;;;7.84;74.20;102410.00;5010164;28;20109;-73
2022/03/07 02:31:40;;;;;;;13.02;3.88;;;;;;;7.72;74.92;102406.69;5026994;28;20033;-73
2022/03/07 02:34:06;;;;;;;18.75;3.72;;;;;;;7.71;75.28;102412.16;5015404;28;20025;-73
2022/03/07 02:36:32;;;;;;;10.88;3.25;;;;;;;7.60;76.08;102423.84;5011537;28;20352;-72
2022/03/07 02:38:58;;;;;;;15.43;3.65;;;;;;;7.58;76.52;102417.84;5014402;28;20156;-72
2022/03/07 02:41:24;;;;;;;15.07;4.25;;;;;;;7.47;77.46;102421.53;5017394;28;20028;-72
2022/03/07 02:43:50;;;;;;;13.43;2.92;;;;;;;7.46;77.10;102422.50;5016980;28;20021;-73
2022/03/07 02:46:17;;;;;;;18.35;3.80;;;;;;;7.39;77.20;102427.59;5001194;28;20060;-72
2022/03/07 02:48:43;;;;;;;15.75;4.32;;;;;;;7.33;78.15;102432.69;5017305;28;20371;-72
2022/03/07 02:51:09;;;;;;;13.32;3.70;;;;;;;7.31;77.80;102437.28;5018601;28;20033;-72
2022/03/07 02:53:35;;;;;;;15.63;3.72;;;;;;;7.22;78.13;102432.81;5016702;28;20117;-73
2022/03/07 02:56:01;;;;;;;18.80;3.15;;;;;;;7.22;78.89;102438.16;5016739;28;20458;-72
2022/03/07 02:58:28;;;;;;;10.68;3.35;;;;;;;7.13;79.16;102445.19;5016642;28;20064;-73
2022/03/07 03:00:54;;;;;;;12.57;3.15;;;;;;;7.07;79.67;102449.28;5029664;28;20526;-72
2022/03/07 03:03:20;;;;;;;21.88;4.43;;;;;;;7.08;78.93;102442.13;5015562;28;20555;-73
2022/03/07 03:05:46;;;;;;;16.73;3.15;;;;;;;7.00;80.17;102440.19;4998899;28;20203;-73
2022/03/07 03:08:13;;;;;;;15.27;3.70;;;;;;;6.91;80.65;102449.03;5016171;28;20022;-73
2022/03/07 03:10:39;;;;;;;15.00;3.80;;;;;;;7.02;80.09;102450.69;5015704;28;20099;-72
2022/03/07 03:13:05;;;;;;;15.60;3.25;;;;;;;6.98;79.76;102459.94;5015884;28;20482;-73
2022/03/07 03:15:31;;;;;;;15.68;3.70;;;;;;;6.85;79.97;102454.91;5012573;28;20048;-72
2022/03/07 03:17:57;;;;;;;14.00;4.05;;;;;;;6.93;78.79;102457.69;5016539;28;20030;-74
2022/03/07 03:20:24;;;;;;;19.13;3.20;;;;;;;6.80;79.32;102465.16;5016297;28;20029;-74
2022/03/07 03:22:50;;;;;;;18.33;3.63;;;;;;;6.78;79.34;102465.28;5014555;28;20456;-74
2022/03/07 03:25:16;;;;;;;16.08;3.38;;;;;;;6.81;78.87;102465.00;5015040;28;20022;-74
2022/03/07 03:27:43;;;;;;;14.13;3.58;;;;;;;6.64;79.43;102468.38;5016838;28;20471;-74
2022/03/07 03:30:11;;;;;;;12.90;3.38;;;;;;;6.65;79.55;102472.72;5001911;28;20045;-74
2022/03/07 03:32:38;;;;;;;17.80;3.80;;;;;;;6.52;80.41;102482.81;5013110;28;20104;-74
2022/03/07 03:35:04;;;;;;;16.00;4.15;;;;;;;6.61;79.57;102479.31;4996939;28;20028;-74
2022/03/07 03:37:30;;;;;;;13.80;3.95;;;;;;;6.76;78.71;102487.69;5007581;28;20108;-74
2022/03/07 03:39:56;;;;;;;12.10;2.97;;;;;;;6.68;78.62;102491.06;5014091;28;20045;-74
2022/03/07 03:42:23;;;;;;;18.98;3.58;;;;;;;6.69;78.20;102494.56;5014108;28;20029;-74
2022/03/07 03:44:49;;;;;;;12.65;3.00;;;;;;;6.48;78.92;102495.53;5014961;28;20026;-74
2022/03/07 03:47:16;;;;;;;10.93;3.60;;;;;;;6.39;79.93;102500.84;5015050;28;20064;-74
2022/03/07 03:49:42;;;;;;;16.23;3.92;;;;;;;6.34;80.10;102503.94;5016934;28;20091;-74
2022/03/07 03:52:09;;;;;;;12.93;3.17;;;;;;;6.30;80.95;102503.34;5013772;28;20117;-74
2022/03/07 03:54:36;;;;;;;13.20;3.80;;;;;;;6.31;80.61;102520.13;4998126;28;20033;-74
2022/03/07 03:57:02;;;;;;;20.02;4.18;;;;;;;6.27;80.46;102521.38;4999201;28;20049;-74
2022/03/07 03:59:28;;;;;;;14.88;3.92;;;;;;;6.25;80.46;102521.53;5015557;28;20037;-74
2022/03/07 04:01:54;;;;;;;13.68;3.70;;;;;;;6.21;80.24;102524.59;5015516;28;20034;-74
2022/03/07 04:04:20;;;;;;;12.20;4.05;;;;;;;6.18;79.77;102524.88;5015309;28;20034;-74
2022/03/07 04:06:47;;;;;;;11.80;3.80;;;;;;;6.22;79.19;102534.25;5015361;28;20064;-74
2022/03/07 04:09:17;;;;;;;14.95;3.40;;;;;;;6.28;79.00;102531.06;5029500;28;20145;-74
2022/03/07 04:11:44;;;;;;;17.17;3.50;;;;;;;6.11;79.25;102534.34;5011272;28;20040;-74
2022/03/07 04:14:11;;;;;;;17.42;2.95;;;;;;;6.30;78.01;102542.41;5008857;28;20084;-74
2022/03/07 04:16:38;;;;;;;12.93;2.85;;;;;;;6.28;77.85;102537.22;5027432;28;20516;-75
2022/03/07 04:19:10;;;;;;;10.52;2.67;;;;;;;6.35;77.24;102537.50;5014140;28;20402;-76
2022/03/07 04:21:39;;;;;;;14.50;4.03;;;;;;;6.25;77.29;102542.81;5033433;28;20033;-76
2022/03/07 04:24:07;;;;;;;18.23;5.35;;;;;;;6.09;78.36;102551.28;5016182;28;20061;-75
2022/03/07 04:26:33;;;;;;;11.98;3.35;;;;;;;6.06;78.23;102559.53;4994547;28;20498;-75
2022/03/07 04:29:05;;;;;;;12.73;3.28;;;;;;;6.09;78.30;102556.59;4996037;28;20122;-76
2022/03/07 04:31:32;;;;;;;5.72;2.63;;;;;;;6.13;78.67;102562.50;5013872;28;20022;-73
2022/03/07 04:33:58;;;;;;;10.88;2.97;;;;;;;6.02;78.39;102568.75;5013911;28;20026;-73
2022/03/07 04:36:25;;;;;;;11.77;3.25;;;;;;;5.92;78.62;102562.56;4991731;28;20037;-73
2022/03/07 04:38:51;;;;;;;11.93;2.75;;;;;;;5.99;78.43;102561.03;5009284;28;20030;-72
2022/03/07 04:41:17;;;;;;;9.32;3.22;;;;;;;5.94;78.26;102568.59;5012769;28;20577;-73
2022/03/07 04:43:44;;;;;;;11.00;3.33;;;;;;;5.94;78.16;102568.59;5011132;28;20032;-75
2022/03/07 04:46:10;;;;;;;11.02;3.40;;;;;;;5.83;78.78;102573.97;5010643;28;20025;-74
2022/03/07 04:48:37;;;;;;;12.25;3.47;;;;;;;5.90;78.88;102571.63;5014221;28;20090;-76
2022/03/07 04:51:03;;;;;;;13.80;4.60;;;;;;;5.83;78.54;102582.78;5029095;28;20049;-76
2022/03/07 04:53:30;;;;;;;13.38;4.88;;;;;;;5.80;78.56;102577.72;5025013;28;20423;-76
2022/03/07 04:55:57;;;;;;;13.93;4.95;;;;;;;5.79;78.22;102581.34;5026035;28;20243;-76
2022/03/07 04:58:23;;;;;;;14.27;4.88;;;;;;;5.65;78.62;102584.34;5024195;28;20026;-76
2022/03/07 05:00:49;;;;;;;18.00;4.50;;;;;;;5.56;79.33;102587.78;5030040;28;20076;-76
2022/03/07 05:03:16;;;;;;;17.00;4.20;;;;;;;5.35;80.02;102585.13;5008441;28;20132;-77
2022/03/07 05:05:42;;;;;;;14.13;3.60;;;;;;;5.49;79.53;102587.44;5026158;28;20018;-77
2022/03/07 05:08:08;;;;;;;14.80;3.67;;;;;;;5.44;79.13;102589.69;5004738;28;20030;-77
2022/03/07 05:10:34;;;;;;;16.10;4.05;;;;;;;5.41;79.10;102589.91;5015115;28;20022;-77
2022/03/07 05:13:00;;;;;;;11.75;4.45;;;;;;;5.06;80.67;102600.84;5022583;28;20018;-76
2022/03/07 05:15:26;;;;;;;8.90;3.72;;;;;;;5.22;80.66;102598.59;5005274;28;20034;-76
2022/03/07 05:17:54;;;;;;;11.30;3.97;;;;;;;5.31;79.83;102602.28;5022327;28;20029;-76
2022/03/07 05:20:22;;;;;;;10.60;4.25;;;;;;;5.22;80.11;102611.03;5023606;28;20089;-76
2022/03/07 05:22:49;;;;;;;12.23;3.40;;;;;;;5.24;80.41;102609.09;5023104;28;20040;-76
2022/03/07 05:25:17;;;;;;;16.50;3.78;;;;;;;5.12;80.36;102605.63;5005014;28;20374;-76
2022/03/07 05:27:44;;;;;;;12.65;3.15;;;;;;;5.20;80.85;102608.47;5023413;28;20126;-76
2022/03/07 05:30:15;;;;;;;15.90;3.40;;;;;;;5.12;80.82;102610.94;5021263;28;20044;-76
2022/03/07 05:32:53;;;;;;;11.02;3.55;;;;;;;5.09;80.82;102615.66;5022567;28;20068;-76
2022/03/07 05:35:39;;;;;;;8.25;2.53;;;;;;;5.09;80.51;102616.50;4961880;29;20096;-76
2022/03/07 05:38:05;;;;;;;9.18;3.15;;;;;;;5.06;80.40;102622.06;4962483;29;20489;-76
2022/03/07 05:40:31;;;;;;;8.30;3.05;;;;;;;4.96;80.46;102623.78;4963111;29;20423;-76
2022/03/07 05:42:58;;;;;;;13.48;3.60;;;;;;;4.95;80.59;102619.47;4967751;28;20129;-76
2022/03/07 05:45:24;;;;;;;9.85;2.70;;;;;;;4.92;81.04;102620.53;4972340;28;20146;-76
2022/03/07 05:47:50;;;;;;;8.70;3.60;;;;;;;4.91;81.15;102623.31;4966505;29;20082;-77
2022/03/07 05:50:16;;;;;;;7.70;2.42;;;;;;;4.89;81.30;102626.09;4948099;28;20031;-76
2022/03/07 05:52:43;;;;;;;12.18;2.72;;;;;;;4.88;81.48;102624.41;4962889;29;20050;-77
2022/03/07 05:55:10;;;;;;;7.68;2.70;;;;;;;4.91;81.74;102633.94;4960710;28;20544;-77
2022/03/07 05:57:36;;;;;;;8.25;2.22;;;;;;;4.90;82.20;102635.75;4972487;28;20047;-76
2022/03/07 06:00:06;;;;;;;11.85;2.75;;;;;;;4.85;81.73;102639.75;4958080;29;20043;-77
2022/03/07 06:02:32;;;;;;;17.13;3.58;;;;;;;4.77;82.31;102640.34;4958501;29;20031;-76
2022/03/07 06:04:58;;;;;;;15.25;3.30;;;;;;;4.61;83.59;102637.25;4959602;28;20053;-76
2022/03/07 06:07:24;;;;;;;13.93;3.45;;;;;;;4.69;83.51;102656.06;4958486;29;20117;-76
2022/03/07 06:09:50;;;;;;;11.32;3.58;;;;;;;4.67;83.29;102656.19;4957729;29;20041;-77
2022/03/07 06:12:16;;;;;;;12.73;3.42;;;;;;;4.67;83.71;102652.69;4985805;28;20038;-76
2022/03/07 06:14:43;;;;;;;11.15;2.75;;;;;;;4.67;83.07;102647.38;5018948;28;20064;-77
2022/03/07 06:17:09;;;;;;;11.98;2.70;;;;;;;4.69;83.12;102646.28;5034605;28;20030;-76
2022/03/07 06:19:35;;;;;;;13.80;3.45;;;;;;;4.69;83.20;102650.75;5019830;28;20029;-77
2022/03/07 06:22:01;;;;;;;10.65;2.75;;;;;;;4.68;83.07;102662.31;5033951;28;20117;-77
2022/03/07 06:24:29;;;;;;;10.15;2.63;;;;;;;4.70;83.21;102644.47;5030753;28;20038;-74
2022/03/07 06:26:58;;;;;;;6.22;2.08;;;;;;;4.74;83.25;102648.56;5013180;28;20030;-73
2022/03/07 06:29:24;;;;;;;14.00;2.88;;;;;;;4.71;82.93;102648.81;5011850;28;20469;-73
2022/03/07 06:31:50;;;;;;;13.40;2.65;;;;;;;4.72;83.03;102650.50;5012444;28;20420;-74
2022/03/07 06:34:17;;;;;;;12.23;2.70;;;;;;;4.73;83.13;102657.50;5013111;28;20045;-74
2022/03/07 06:36:43;;;;;;;9.18;2.47;;;;;;;4.71;83.21;102654.94;5012340;28;20033;-73
2022/03/07 06:39:09;;;;;;;13.63;3.22;;;;;;;4.73;82.91;102652.19;5010444;28;20034;-74
2022/03/07 06:41:35;;;;;;;8.85;2.85;;;;;;;4.74;83.03;102652.06;5013182;28;20029;-74
2022/03/07 06:44:01;;;;;;;14.07;2.92;;;;;;;4.69;83.05;102653.41;5013309;28;20028;-74
2022/03/07 06:46:28;;;;;;;9.85;2.20;;;;;;;4.74;83.22;102645.91;4995562;28;20053;-74
2022/03/07 06:48:55;;;;;;;10.55;2.30;;;;;;;4.74;82.85;102645.91;5014062;28;20041;-74
2022/03/07 06:51:21;;;;;;;9.25;2.63;;;;;;;4.73;82.77;102647.72;5011941;28;20468;-73
2022/03/07 06:53:48;;;;;;;9.63;3.00;;;;;;;4.68;82.78;102643.75;4997716;28;20371;-74
2022/03/07 06:56:17;;;;;;;11.07;2.67;;;;;;;4.67;82.54;102642.91;5027666;28;20041;-74
2022/03/07 06:58:45;;;;;;;8.57;3.20;;;;;;;4.63;82.35;102646.78;4994222;28;20037;-74
2022/03/07 07:01:11;;;;;;;18.55;3.30;;;;;;;4.63;82.24;102641.47;5012618;28;20033;-74
2022/03/07 07:03:37;;;;;;;9.43;2.72;;;;;;;4.57;82.22;102646.44;5029069;28;20488;-76
2022/03/07 07:06:03;;;;;;;9.40;2.47;;;;;;;4.55;82.36;102648.34;5019096;28;20057;-76
2022/03/07 07:08:29;;;;;;;11.85;2.40;;;;;;;4.56;81.98;102645.59;5018177;28;20041;-76
2022/03/07 07:10:56;;;;;;;9.32;2.58;;;;;;;4.50;82.04;102649.56;5020370;28;20026;-76
2022/03/07 07:13:22;;;;;;;8.30;2.47;;;;;;;4.46;81.91;102648.13;5018672;28;20072;-76
2022/03/07 07:15:55;;;;;;;10.82;2.38;;;;;;;4.41;81.97;102650.28;5035455;28;20029;-76
2022/03/07 07:18:22;;;;;;;9.18;2.72;;;;;;;4.37;81.41;102651.50;5035154;28;20040;-77
2022/03/07 07:20:50;;;;;;;8.77;2.47;;;;;;;4.23;81.58;102649.09;5020682;28;20018;-77
2022/03/07 07:23:18;;;;;;;10.68;2.17;;;;;;;4.26;81.64;102646.19;5036645;28;20025;-76
2022/03/07 07:25:45;;;;;;;9.00;2.33;;;;;;;4.23;81.51;102644.63;5021486;28;20036;-79
2022/03/07 07:28:12;;;;;;;7.60;2.08;;;;;;;4.16;81.51;102640.75;5024023;28;20076;-76
2022/03/07 07:30:39;;;;;;;7.90;2.40;;;;;;;4.16;81.34;102648.72;5014964;28;20026;-76
2022/03/07 07:33:06;;;;;;;6.05;2.20;;;;;;;4.14;81.48;102653.28;5026928;28;20083;-76
2022/03/07 07:35:35;;;;;;;11.48;2.35;;;;;;;4.07;81.28;102648.59;5018332;28;20022;-72
2022/03/07 07:38:03;;;;;;;7.75;2.22;;;;;;;4.05;81.50;102640.75;5014668;28;20459;-72
2022/03/07 07:40:30;;;;;;;10.82;2.03;;;;;;;4.00;81.49;102639.41;5014682;28;20037;-72
2022/03/07 07:42:56;;;;;;;8.35;2.13;;;;;;;4.00;81.68;102632.34;5027774;28;20030;-72
2022/03/07 07:45:22;;;;;;;7.93;2.35;;;;;;;3.95;81.59;102629.22;5031232;28;20097;-72
2022/03/07 07:47:49;;;;;;;7.80;2.25;;;;;;;3.91;81.36;102639.19;5015323;28;20436;-72
2022/03/07 07:50:15;;;;;;;6.05;2.28;;;;;;;3.92;81.49;102629.44;5030366;28;20164;-72
2022/03/07 07:52:41;;;;;;;5.93;2.15;;;;;;;3.85;81.13;102634.38;5014667;28;20026;-72
2022/03/07 07:55:08;;;;;;;5.32;1.77;;;;;;;3.85;81.21;102636.16;5030558;28;20107;-71
2022/03/07 07:57:35;;;;;;;6.28;2.13;;;;;;;3.84;81.22;102637.13;5015440;28;20064;-72
2022/03/07 08:00:02;;;;;;;10.10;1.80;;;;;;;3.77;81.11;102627.94;5015195;28;20018;-72
2022/03/07 08:02:28;;;;;;;4.70;1.77;;;;;;;3.76;81.11;102627.13;4998079;28;20120;-72
2022/03/07 08:04:54;;;;;;;6.70;1.27;;;;;;;3.69;80.93;102625.91;5015169;28;20475;-72
2022/03/07 08:07:20;;;;;;;7.95;2.25;;;;;;;3.67;80.86;102625.19;5030995;28;20038;-72
2022/03/07 08:09:46;;;;;;;5.70;2.00;;;;;;;3.69;80.70;102628.56;5015649;28;20045;-71
2022/03/07 08:12:17;;;;;;;4.13;1.80;;;;;;;3.66;80.87;102626.13;5014791;28;20065;-72
2022/03/07 08:14:44;;;;;;;7.97;1.63;;;;;;;3.68;80.45;102619.78;5029453;28;20025;-72
2022/03/07 08:17:11;;;;;;;4.65;1.63;;;;;;;3.59;80.58;102628.41;5014952;28;20041;-71
2022/03/07 08:19:38;;;;;;;15.02;2.13;;;;;;;3.59;80.38;102635.50;5028469;28;20025;-71
2022/03/07 08:22:05;;;;;;;4.38;1.80;;;;;;;3.56;80.02;102638.41;5013514;28;20407;-71
2022/03/07 08:24:31;;;;;;;2.90;1.50;;;;;;;3.58;79.89;102621.44;5030546;28;20402;-71
2022/03/07 08:26:57;;;;;;;5.20;1.50;;;;;;;3.55;79.93;102636.69;5013704;28;20033;-71
2022/03/07 08:29:24;;;;;;;5.40;1.45;;;;;;;3.49;79.79;102642.44;4996848;28;20041;-71
2022/03/07 08:31:50;;;;;;;8.80;1.88;;;;;;;3.49;79.73;102638.00;5014445;28;20032;-72
2022/03/07 08:34:17;;;;;;;3.80;1.40;;;;;;;3.46;79.39;102653.28;5027904;28;20068;-72
2022/03/07 08:36:43;;;;;;;6.50;1.52;;;;;;;3.40;79.49;102651.94;5013317;28;20463;-72
2022/03/07 08:39:09;;;;;;;9.82;2.13;;;;;;;3.35;79.42;102646.16;5010543;28;20071;-72
2022/03/07 08:41:35;;;;;;;7.90;1.30;;;;;;;3.33;79.35;102654.22;5012357;28;20041;-72
2022/03/07 08:44:02;;;;;;;5.30;1.52;;;;;;;3.30;79.28;102662.38;5013411;28;20075;-71
2022/03/07 08:46:28;;;;;;;5.30;1.45;;;;;;;3.26;79.19;102657.41;5029546;28;20026;-72
2022/03/07 08:48:55;;;;;;;4.18;1.60;;;;;;;3.24;79.40;102651.41;4996442;28;20359;-72
2022/03/07 08:51:21;;;;;;;5.30;1.52;;;;;;;3.15;79.51;102660.84;5012416;28;20034;-72
2022/03/07 08:53:47;;;;;;;4.43;1.35;;;;;;;3.11;79.65;102659.38;5028774;28;20056;-72
2022/03/07 08:56:14;;;;;;;4.82;1.73;;;;;;;3.05;80.21;102660.66;5011837;28;20050;-71
2022/03/07 08:58:40;;;;;;;3.30;1.63;;;;;;;3.00;80.05;102657.53;5014104;28;20021;-72
2022/03/07 09:01:07;;;;;;;5.72;1.90;;;;;;;3.00;80.28;102654.03;5011065;28;20061;-71
2022/03/07 09:03:34;;;;;;;6.38;1.52;;;;;;;3.01;80.21;102653.09;5012144;28;20025;-72
2022/03/07 09:06:01;;;;;;;5.55;1.92;;;;;;;3.01;80.20;102658.38;5010329;28;20018;-72
2022/03/07 09:08:27;;;;;;;4.78;1.70;;;;;;;3.01;80.90;102653.94;5026779;28;20037;-71
2022/03/07 09:10:53;;;;;;;4.55;1.58;;;;;;;2.95;81.02;102653.53;4995703;28;20038;-71
2022/03/07 09:13:20;;;;;;;4.53;1.40;;;;;;;3.02;81.31;102654.78;5012899;28;20108;-71
2022/03/07 09:15:47;;;;;;;6.05;1.33;;;;;;;2.99;80.90;102647.88;5026836;28;20037;-71
2022/03/07 09:18:13;;;;;;;5.93;1.63;;;;;;;3.00;81.07;102644.31;5012734;28;20129;-71
2022/03/07 09:20:40;;;;;;;5.35;1.67;;;;;;;3.05;81.00;102649.25;4995743;28;20041;-71
2022/03/07 09:23:06;;;;;;;4.90;1.38;;;;;;;3.09;80.93;102650.72;5012220;28;20336;-71
2022/03/07 09:25:32;;;;;;;6.05;1.80;;;;;;;3.07;80.84;102656.13;5012338;28;20109;-72
2022/03/07 09:27:58;;;;;;;4.30;1.52;;;;;;;3.10;80.96;102650.59;5012376;28;20030;-71
2022/03/07 09:30:25;;;;;;;6.03;1.52;;;;;;;3.15;80.73;102652.91;4995798;28;20037;-72
2022/03/07 09:32:52;;;;;;;7.78;1.35;;;;;;;3.12;80.68;102656.63;5011463;28;20028;-71
2022/03/07 09:35:18;;;;;;;4.25;1.85;;;;;;;3.18;80.71;102660.63;5013938;28;20034;-71
2022/03/07 09:37:44;;;;;;;6.30;1.50;;;;;;;3.14;80.74;102657.34;5010755;28;20093;-71
2022/03/07 09:40:11;;;;;;;3.95;1.40;;;;;;;3.12;80.50;102667.22;5013173;28;20026;-71
2022/03/07 09:42:37;;;;;;;8.85;1.52;;;;;;;3.12;80.27;102661.09;5012614;28;20030;-71
2022/03/07 09:45:04;;;;;;;7.32;1.70;;;;;;;3.07;80.17;102671.16;5011731;28;20022;-71
2022/03/07 09:47:32;;;;;;;5.45;1.45;;;;;;;3.08;80.14;102664.91;5028164;28;20030;-71
2022/03/07 09:49:58;;;;;;;8.63;1.60;;;;;;;3.01;79.90;102664.50;5013609;28;20112;-72
2022/03/07 09:52:25;;;;;;;4.78;1.50;;;;;;;2.98;79.87;102664.72;5013434;28;20490;-72
2022/03/07 09:54:51;;;;;;;5.57;1.40;;;;;;;2.95;80.03;102672.91;5012760;28;20046;-72
2022/03/07 09:57:17;;;;;;;5.43;1.50;;;;;;;2.89;79.93;102668.06;5009694;28;20502;-71
2022/03/07 09:59:44;;;;;;;5.40;1.67;;;;;;;2.89;80.14;102660.97;4995427;28;20038;-72
2022/03/07 10:02:13;;;;;;;6.43;1.30;;;;;;;2.89;80.10;102660.13;5012058;28;20057;-71
2022/03/07 10:04:43;;;;;;;7.25;1.20;;;;;;;2.91;80.15;102666.97;5010523;28;20026;-74
2022/03/07 10:07:09;;;;;;;6.32;1.20;;;;;;;2.85;80.41;102677.16;5013373;28;20053;-74
2022/03/07 10:09:35;;;;;;;3.97;1.40;;;;;;;2.79;80.79;102674.97;5013345;28;20037;-74
2022/03/07 10:12:05;;;;;;;2.85;1.25;;;;;;;2.75;80.45;102679.63;5013960;28;20072;-74
2022/03/07 10:14:44;;;;;;;5.53;1.48;;;;;;;2.76;80.64;102681.28;5013623;28;20387;-74
2022/03/07 10:17:27;;;;;;;3.45;1.27;;;;;;;2.74;80.50;102672.63;5013103;28;20036;-74
2022/03/07 10:19:55;;;;;;;3.95;1.30;;;;;;;2.68;80.96;102669.59;5012259;28;20088;-74
2022/03/07 10:22:26;;;;;;;4.07;1.20;;;;;;;2.66;80.92;102667.03;5012028;28;20029;-74
2022/03/07 10:25:01;;;;;;;7.55;1.40;;;;;;;2.69;80.64;102652.78;5012732;28;20080;-74
2022/03/07 10:27:39;;;;;;;5.40;1.48;;;;;;;2.67;80.79;102647.59;5011886;28;20053;-74
2022/03/07 10:30:17;;;;;;;5.85;1.42;;;;;;;2.63;80.76;102646.13;5011690;28;20040;-74
2022/03/07 10:32:50;;;;;;;6.68;1.60;;;;;;;2.63;81.17;102638.19;5013987;28;20034;-74
2022/03/07 10:35:44;;;;;;;4.22;1.17;;;;;;;2.65;81.35;102638.91;5012364;28;20026;-74
2022/03/07 10:38:10;;;;;;;3.85;1.20;;;;;;;2.62;81.30;102633.88;5012630;28;20084;-74
2022/03/07 10:40:39;;;;;;;6.20;1.48;;;;;;;2.61;81.26;102637.47;5012590;28;20057;-74
2022/03/07 10:43:07;;;;;;;5.07;1.40;;;;;;;2.66;81.15;102648.53;4996279;28;20026;-74
2022/03/07 10:45:46;;;;;;;7.38;1.48;;;;;;;2.64;81.02;102647.81;5009927;28;20338;-74
2022/03/07 10:48:13;;;;;;;6.05;1.10;;;;;;;2.64;80.57;102651.28;5011156;28;20030;-75
2022/03/07 10:50:42;;;;;;;4.07;1.10;;;;;;;2.60;80.93;102655.09;5013213;28;20440;-74
2022/03/07 10:53:08;;;;;;;4.50;1.35;;;;;;;2.62;81.04;102647.09;5008852;28;20136;-74
2022/03/07 10:55:35;;;;;;;4.95;1.30;;;;;;;2.58;81.08;102649.09;5028634;28;20033;-74
2022/03/07 10:58:07;;;;;;;4.30;0.90;;;;;;;2.58;81.38;102637.69;5029820;28;20125;-74
2022/03/07 11:00:34;;;;;;;4.40;1.40;;;;;;;2.55;81.57;102643.16;5015918;28;20076;-74
2022/03/07 11:03:00;;;;;;;3.95;1.33;;;;;;;2.61;81.54;102640.13;5031404;28;20033;-75
2022/03/07 11:05:27;;;;;;;2.55;1.05;;;;;;;2.66;81.36;102643.25;5032850;28;20128;-74
2022/03/07 11:07:53;;;;;;;7.03;1.75;;;;;;;2.61;81.40;102638.31;5016613;28;20034;-74
2022/03/07 11:10:19;;;;;;;3.55;1.20;;;;;;;2.61;81.18;102643.59;5014239;28;20421;-74
2022/03/07 11:12:46;;;;;;;6.63;1.40;;;;;;;2.57;81.22;102644.75;5016577;28;20030;-74
2022/03/07 11:15:18;;;;;;;7.15;1.30;;;;;;;2.50;80.95;102643.53;5015883;28;20033;-74
2022/03/07 11:17:47;;;;;;;4.75;1.20;;;;;;;2.56;81.23;102636.94;5015771;28;20043;-74
2022/03/07 11:20:17;;;;;;;6.63;1.70;;;;;;;2.52;81.28;102648.69;5017467;28;20056;-74
2022/03/07 11:22:44;;;;;;;6.55;1.25;;;;;;;2.49;80.97;102647.09;5015904;28;20113;-74
2022/03/07 11:25:15;;;;;;;3.13;1.10;;;;;;;2.47;81.40;102648.16;5014898;28;20413;-72
2022/03/07 11:27:42;;;;;;;3.45;1.15;;;;;;;2.46;80.99;102657.06;5031567;28;20088;-72
2022/03/07 11:30:19;;;;;;;3.92;1.30;;;;;;;2.41;81.09;102654.72;5031722;28;20116;-71